createdAt,value
2018-06-22T05:00:54.595Z,12.71
2018-06-22T05:05:57.999Z,12.64
2018-06-22T05:11:01.343Z,12.59
2018-06-22T05:16:04.662Z,12.76
2018-06-22T05:21:07.987Z,12.66
2018-06-22T05:26:12.088Z,12.69
2018-06-22T05:31:15.414Z,12.66
2018-06-22T05:36:18.751Z,12.69
2018-06-22T05:41:22.192Z,12.88
2018-06-22T05:46:25.512Z,12.79
2018-06-22T05:51:28.846Z,12.80
2018-06-22T05:56:32.191Z,12.83
2018-06-22T06:01:36.293Z,13.14
2018-06-22T06:06:39.733Z,12.88
2018-06-22T06:11:43.859Z,13.02
2018-06-22T06:16:47.237Z,13.04
2018-06-22T06:21:50.524Z,13.17
2018-06-22T06:26:53.866Z,13.31
2018-06-22T06:31:57.213Z,13.37
2018-06-22T06:37:01.312Z,13.33
2018-06-22T06:42:04.635Z,13.44
2018-06-22T06:47:07.971Z,13.41
2018-06-22T06:52:12.064Z,13.62
2018-06-22T06:57:15.386Z,13.73
2018-06-22T07:02:18.719Z,13.53
2018-06-22T07:07:22.038Z,13.51
2018-06-22T07:12:26.124Z,13.64
2018-06-22T07:17:29.448Z,13.98
2018-06-22T07:22:32.775Z,13.99
2018-06-22T07:27:36.116Z,13.98
2018-06-22T07:32:40.218Z,13.96
2018-06-22T07:37:43.555Z,14.13
2018-06-22T07:42:46.889Z,14.08
2018-06-22T07:47:50.218Z,14.44
2018-06-22T07:52:53.550Z,14.67
2018-06-22T07:57:56.948Z,14.75
2018-06-22T08:03:00.237Z,14.36
2018-06-22T08:08:03.569Z,14.49
2018-06-22T08:13:06.891Z,14.74
2018-06-22T08:18:10.225Z,14.89
2018-06-22T08:23:13.557Z,15.32
2018-06-22T08:28:16.879Z,14.61
2018-06-22T08:33:20.211Z,14.70
2018-06-22T08:38:23.545Z,15.03
2018-06-22T08:43:26.886Z,15.02
2018-06-22T08:48:30.215Z,15.02
2018-06-22T08:53:33.558Z,15.32
2018-06-22T08:58:36.884Z,15.37
2018-06-22T09:03:40.218Z,14.94
2018-06-22T09:08:43.555Z,14.74
2018-06-22T09:13:46.898Z,14.99
2018-06-22T09:18:51.023Z,15.01
2018-06-22T09:23:55.223Z,15.42
2018-06-22T09:28:58.691Z,15.35
2018-06-22T09:34:02.016Z,15.89
2018-06-22T09:39:05.391Z,16.07
2018-06-22T09:44:08.727Z,15.66
2018-06-22T09:49:12.058Z,15.72
2018-06-22T09:54:15.390Z,15.78
2018-06-22T09:59:19.492Z,15.60
2018-06-22T10:04:22.823Z,15.83
2018-06-22T10:09:26.171Z,15.94
2018-06-22T10:14:29.496Z,16.14
2018-06-22T10:19:33.605Z,16.35
2018-06-22T10:24:36.949Z,16.19
2018-06-22T10:29:40.294Z,16.01
2018-06-22T10:34:43.631Z,15.68
2018-06-22T10:39:46.963Z,16.18
2018-06-22T10:44:50.313Z,16.21
2018-06-22T10:49:53.636Z,16.12
2018-06-22T10:54:56.971Z,16.26
2018-06-22T11:00:01.099Z,16.38
2018-06-22T11:05:04.429Z,16.13
2018-06-22T11:10:07.758Z,16.16
2018-06-22T11:15:11.082Z,16.64
2018-06-22T11:20:15.179Z,16.44
2018-06-22T11:25:19.311Z,16.22
2018-06-22T11:30:22.632Z,16.31
2018-06-22T11:35:25.961Z,16.62
2018-06-22T11:40:29.286Z,16.66
2018-06-22T11:45:32.619Z,16.12
2018-06-22T11:50:35.964Z,15.94
2018-06-22T11:55:40.068Z,16.22
2018-06-22T12:00:43.399Z,16.20
2018-06-22T12:05:47.287Z,16.22
2018-06-22T12:10:52.098Z,16.30
2018-06-22T12:15:55.446Z,16.54
2018-06-22T12:20:59.576Z,16.46
2018-06-22T12:26:02.902Z,16.20
2018-06-22T12:31:06.230Z,16.40
2018-06-22T12:36:09.553Z,16.54
2018-06-22T12:41:12.889Z,16.16
2018-06-22T12:46:16.220Z,16.08
2018-06-22T12:51:19.547Z,16.08
2018-06-22T12:56:23.642Z,16.21
2018-06-22T13:01:27.143Z,16.32
2018-06-22T13:06:30.466Z,16.22
2018-06-22T13:11:33.812Z,16.18
2018-06-22T13:16:37.926Z,16.06
2018-06-22T13:21:41.359Z,16.32
2018-06-22T13:26:46.702Z,15.89
2018-06-22T13:31:51.536Z,16.09
2018-06-22T13:36:56.625Z,16.66
2018-06-22T13:42:01.566Z,16.76
2018-06-22T13:47:08.129Z,16.51
2018-06-22T13:52:14.776Z,16.57
2018-06-22T13:57:18.119Z,17.24
2018-06-22T14:02:21.482Z,17.20
2018-06-22T14:07:24.835Z,16.95
2018-06-22T14:12:28.167Z,16.58
2018-06-22T14:17:31.528Z,17.00
2018-06-22T14:22:34.878Z,17.33
2018-06-22T14:27:38.228Z,17.45
2018-06-22T14:32:41.570Z,17.34
2018-06-22T14:37:44.903Z,17.31
2018-06-22T14:42:48.235Z,17.73
2018-06-22T14:47:51.581Z,17.31
2018-06-22T14:52:54.904Z,17.81
2018-06-22T15:03:46.863Z,18.62
2018-06-22T15:08:50.191Z,18.51
2018-06-22T15:13:53.515Z,18.79
2018-06-22T15:18:57.604Z,18.54
2018-06-22T15:24:00.926Z,17.81
2018-06-22T15:29:04.247Z,18.29
2018-06-22T15:34:07.578Z,18.90
2018-06-22T15:44:54.505Z,19.27
2018-06-22T15:55:29.763Z,19.67
2018-06-22T16:00:33.096Z,19.88
2018-06-22T16:05:36.432Z,19.25
2018-06-22T16:10:39.768Z,19.35
2018-06-22T16:21:32.852Z,19.11
2018-06-22T16:32:07.736Z,18.83
2018-06-22T16:37:11.039Z,18.16
2018-06-22T16:42:14.380Z,18.58
2018-06-22T16:47:17.704Z,18.70
2018-06-22T16:52:21.035Z,19.35
2018-06-22T16:57:24.376Z,19.09
2018-06-22T17:02:27.706Z,19.16
2018-06-22T17:07:31.043Z,19.41
2018-06-22T17:12:39.962Z,18.98
2018-06-22T17:23:11.239Z,19.08
2018-06-22T17:28:14.563Z,18.52
2018-06-22T17:33:18.138Z,19.02
2018-06-22T17:38:22.340Z,19.07
2018-06-22T17:43:25.775Z,19.10
2018-06-22T17:48:29.213Z,19.30
2018-06-22T17:53:33.343Z,18.81
2018-06-22T17:58:37.442Z,18.67
2018-06-22T18:09:11.659Z,18.83
2018-06-22T18:14:14.987Z,19.07
2018-06-22T18:19:18.321Z,19.36
2018-06-22T18:24:21.675Z,19.54
2018-06-22T18:29:25.766Z,19.23
2018-06-22T18:34:29.107Z,18.85
2018-06-22T18:39:32.434Z,18.64
2018-06-22T18:44:35.762Z,18.52
2018-06-22T18:49:39.103Z,18.52
2018-06-22T18:54:47.899Z,18.36
2018-06-22T18:59:51.227Z,17.85
2018-06-22T19:04:54.596Z,17.97
2018-06-22T19:09:57.891Z,17.66
2018-06-22T19:15:01.219Z,17.33
2018-06-22T19:20:04.555Z,17.04
2018-06-22T19:25:08.660Z,16.91
2018-06-22T19:30:11.991Z,16.83
2018-06-22T19:35:15.323Z,16.78
2018-06-22T19:40:19.410Z,17.03
2018-06-22T19:51:10.119Z,16.49
2018-06-22T19:56:13.445Z,16.17
2018-06-22T20:01:16.791Z,16.05
2018-06-22T20:06:20.114Z,16.08
2018-06-22T20:11:23.449Z,16.02
2018-06-22T20:16:27.538Z,16.10
2018-06-22T20:21:30.855Z,16.27
2018-06-22T20:26:34.192Z,16.36
2018-06-22T20:31:37.522Z,16.35
2018-06-22T20:42:25.211Z,16.18
2018-06-22T20:47:28.540Z,15.95
2018-06-22T20:52:31.866Z,15.91
2018-06-22T20:57:35.203Z,15.72
2018-06-22T21:02:38.531Z,15.71
2018-06-22T21:07:41.858Z,15.69
2018-06-22T21:12:45.284Z,15.72
2018-06-22T21:17:48.535Z,15.65
2018-06-22T21:22:51.868Z,15.58
2018-06-22T21:27:55.196Z,15.52
2018-06-22T21:38:48.006Z,15.50
2018-06-22T21:43:52.114Z,15.30
2018-06-22T21:48:55.439Z,15.11
2018-06-22T21:53:58.774Z,15.01
2018-06-22T21:59:02.125Z,14.98
2018-06-22T22:04:05.550Z,14.99
2018-06-22T22:09:08.883Z,14.93
2018-06-22T22:14:12.218Z,14.84
2018-06-22T22:19:15.550Z,14.55
2018-06-22T22:24:19.639Z,14.38
2018-06-22T22:29:22.961Z,14.22
